createdAt,value
2022-10-19T00:01:40.664Z,2
2022-10-19T00:03:24.342Z,2
2022-10-19T00:05:08.044Z,2
2022-10-19T00:06:51.758Z,2
2022-10-19T00:08:35.421Z,1
2022-10-19T00:10:19.185Z,2
2022-10-19T00:12:02.874Z,1
2022-10-19T00:13:46.554Z,2
2022-10-19T00:15:30.246Z,2
2022-10-19T00:17:13.955Z,2
2022-10-19T00:18:57.654Z,2
2022-10-19T00:20:41.323Z,2
2022-10-19T00:22:25.149Z,1
2022-10-19T00:24:08.764Z,2
2022-10-19T00:25:52.439Z,2
2022-10-19T00:27:36.128Z,2
2022-10-19T00:29:19.837Z,2
2022-10-19T00:31:03.596Z,2
2022-10-19T00:32:47.274Z,2
2022-10-19T00:34:30.958Z,2
2022-10-19T00:36:14.641Z,1
2022-10-19T00:37:58.349Z,1
2022-10-19T00:39:42.133Z,2
2022-10-19T00:41:25.801Z,2
2022-10-19T00:43:09.482Z,2
2022-10-19T00:44:53.165Z,2
2022-10-19T00:46:36.843Z,2
2022-10-19T00:48:20.541Z,2
2022-10-19T00:50:04.259Z,2
2022-10-19T00:51:48.031Z,2
2022-10-19T00:53:31.731Z,2
2022-10-19T00:55:15.381Z,2
2022-10-19T00:56:59.064Z,0
2022-10-19T00:58:42.796Z,0
2022-10-19T01:00:26.532Z,0
2022-10-19T01:02:10.210Z,0
2022-10-19T01:03:53.943Z,0
2022-10-19T01:05:37.574Z,1
2022-10-19T01:07:21.277Z,1
2022-10-19T01:09:05.029Z,0
2022-10-19T01:10:48.734Z,1
2022-10-19T01:12:32.413Z,0
2022-10-19T01:14:16.098Z,0
2022-10-19T01:15:59.776Z,1
2022-10-19T01:17:43.495Z,0
2022-10-19T01:19:27.186Z,0
2022-10-19T01:21:10.937Z,0
2022-10-19T01:22:54.618Z,0
2022-10-19T01:24:38.316Z,0
2022-10-19T01:26:21.991Z,1
2022-10-19T01:28:05.737Z,1
2022-10-19T01:29:49.373Z,0
2022-10-19T01:31:33.140Z,0
2022-10-19T01:33:16.831Z,0
2022-10-19T01:35:00.567Z,1
2022-10-19T01:36:44.185Z,0
2022-10-19T01:38:27.909Z,1
2022-10-19T01:40:11.624Z,0
2022-10-19T01:41:55.356Z,0
2022-10-19T01:43:39.031Z,1
2022-10-19T01:45:22.726Z,0
2022-10-19T01:47:06.400Z,1
2022-10-19T01:48:50.109Z,1
2022-10-19T01:50:33.794Z,0
2022-10-19T01:52:17.497Z,0
2022-10-19T01:54:01.236Z,1
2022-10-19T01:55:44.926Z,1
2022-10-19T01:57:28.598Z,1
2022-10-19T01:59:12.284Z,0
2022-10-19T02:00:56.089Z,1
2022-10-19T02:02:39.755Z,0
2022-10-19T02:04:23.453Z,0
2022-10-19T02:06:07.119Z,0
2022-10-19T02:07:50.802Z,1
2022-10-19T02:09:34.510Z,1
2022-10-19T02:11:18.214Z,0
2022-10-19T02:13:01.960Z,0
2022-10-19T02:14:45.649Z,0
2022-10-19T02:16:29.329Z,0
2022-10-19T02:18:13.047Z,1
2022-10-19T02:19:56.747Z,0
2022-10-19T02:21:40.491Z,1
2022-10-19T02:23:24.169Z,0
2022-10-19T02:25:07.846Z,0
2022-10-19T02:26:51.549Z,1
2022-10-19T02:28:35.241Z,0
2022-10-19T02:30:19.013Z,1
2022-10-19T02:32:02.695Z,1
2022-10-19T02:33:46.444Z,0
2022-10-19T02:35:30.066Z,0
2022-10-19T02:37:13.906Z,1
2022-10-19T02:38:57.469Z,1
2022-10-19T02:40:41.220Z,0
2022-10-19T02:42:24.900Z,1
2022-10-19T02:44:08.577Z,0
2022-10-19T02:45:52.267Z,0
2022-10-19T02:47:35.987Z,0
2022-10-19T02:49:19.738Z,1
2022-10-19T02:51:03.425Z,0
2022-10-19T02:52:47.100Z,0
2022-10-19T02:54:30.784Z,1
2022-10-19T02:56:14.493Z,0
2022-10-19T02:57:58.188Z,0
2022-10-19T02:59:42.012Z,0
2022-10-19T03:01:25.627Z,1
2022-10-19T03:03:09.309Z,0
2022-10-19T03:04:52.999Z,0
2022-10-19T03:06:36.704Z,1
2022-10-19T03:08:20.416Z,1
2022-10-19T03:10:04.243Z,1
2022-10-19T03:11:47.879Z,1
2022-10-19T03:13:31.540Z,0
2022-10-19T03:15:15.206Z,1
2022-10-19T03:16:58.925Z,0
2022-10-19T03:18:42.672Z,1
2022-10-19T03:20:26.354Z,0
2022-10-19T03:22:10.048Z,0
2022-10-19T03:23:53.738Z,0
2022-10-19T03:25:37.450Z,1
2022-10-19T03:27:21.157Z,0
2022-10-19T03:29:04.877Z,0
2022-10-19T03:30:48.557Z,0
2022-10-19T03:32:32.254Z,1
2022-10-19T03:34:15.973Z,0
2022-10-19T03:35:59.658Z,0
2022-10-19T03:37:43.400Z,0
2022-10-19T03:39:27.120Z,1
2022-10-19T03:41:10.765Z,0
2022-10-19T03:42:54.451Z,0
2022-10-19T03:44:38.160Z,0
2022-10-19T03:46:21.875Z,1
2022-10-19T03:48:05.607Z,0
2022-10-19T03:49:49.292Z,0
2022-10-19T03:51:32.966Z,0
2022-10-19T03:53:16.678Z,0
2022-10-19T03:55:00.362Z,0
2022-10-19T03:56:44.137Z,0
2022-10-19T03:58:27.810Z,0
2022-10-19T04:00:11.883Z,1
2022-10-19T04:01:55.181Z,0
2022-10-19T04:03:38.936Z,0
2022-10-19T04:05:22.606Z,1
2022-10-19T04:07:06.345Z,1
2022-10-19T04:08:50.021Z,0
2022-10-19T04:10:33.703Z,1
2022-10-19T04:12:17.423Z,0
2022-10-19T04:14:01.111Z,0
2022-10-19T04:15:44.785Z,0
2022-10-19T04:17:28.619Z,0
2022-10-19T04:19:12.221Z,0
2022-10-19T04:20:55.908Z,1
2022-10-19T04:22:39.588Z,0
2022-10-19T04:24:23.282Z,0
2022-10-19T04:26:07.000Z,0
2022-10-19T04:27:50.685Z,0
2022-10-19T04:29:34.432Z,0
2022-10-19T04:31:18.108Z,0
2022-10-19T04:33:01.805Z,0
2022-10-19T04:34:45.499Z,0
2022-10-19T04:36:29.211Z,0
2022-10-19T04:38:12.967Z,1
2022-10-19T04:39:56.638Z,1
2022-10-19T04:41:40.838Z,0
2022-10-19T04:43:24.012Z,1
2022-10-19T04:45:07.725Z,1
2022-10-19T04:46:51.486Z,0
2022-10-19T04:48:35.154Z,0
2022-10-19T04:50:18.961Z,0
2022-10-19T04:52:02.519Z,0
2022-10-19T04:53:46.282Z,0
2022-10-19T04:55:29.918Z,0
2022-10-19T04:57:13.708Z,1
2022-10-19T04:58:57.362Z,0
2022-10-19T05:00:41.046Z,0
2022-10-19T05:02:24.734Z,0
2022-10-19T05:04:08.437Z,0
2022-10-19T05:05:52.123Z,0
2022-10-19T05:07:35.825Z,0
2022-10-19T05:09:19.564Z,0
2022-10-19T05:11:03.246Z,0
2022-10-19T05:12:46.927Z,0
2022-10-19T05:14:30.619Z,0
2022-10-19T05:16:14.336Z,0
2022-10-19T05:17:58.031Z,1
2022-10-19T05:19:41.771Z,0
2022-10-19T05:21:25.447Z,1
2022-10-19T05:23:09.176Z,1
2022-10-19T05:24:52.865Z,0
2022-10-19T05:26:36.538Z,1
2022-10-19T05:28:20.297Z,1
2022-10-19T05:30:03.981Z,0
2022-10-19T05:31:47.661Z,1
2022-10-19T05:33:31.346Z,1
2022-10-19T05:35:15.086Z,1
2022-10-19T05:36:58.821Z,0
2022-10-19T05:38:42.495Z,1
2022-10-19T05:40:26.194Z,1
2022-10-19T05:42:09.863Z,1
2022-10-19T05:43:53.608Z,2
2022-10-19T05:45:37.289Z,1
2022-10-19T05:47:20.944Z,1
2022-10-19T05:49:04.705Z,2
2022-10-19T05:50:48.383Z,2
2022-10-19T05:52:32.115Z,1
2022-10-19T05:54:15.797Z,1
2022-10-19T05:55:59.470Z,2
2022-10-19T05:57:43.167Z,2
2022-10-19T05:59:26.924Z,2
2022-10-19T06:01:10.595Z,3
2022-10-19T06:02:54.282Z,3
2022-10-19T06:04:37.965Z,3
2022-10-19T06:06:21.677Z,4
2022-10-19T06:08:05.365Z,4
2022-10-19T06:09:49.125Z,122
2022-10-19T06:11:32.823Z,119
2022-10-19T06:13:16.491Z,119
2022-10-19T06:15:00.239Z,134
2022-10-19T06:16:43.957Z,151
2022-10-19T06:18:27.571Z,164
2022-10-19T06:20:11.326Z,170
2022-10-19T06:21:55.001Z,173
2022-10-19T06:23:38.682Z,194
2022-10-19T06:25:22.391Z,214
2022-10-19T06:27:06.079Z,221
2022-10-19T06:28:49.843Z,245
2022-10-19T06:30:33.528Z,253
2022-10-19T06:32:17.209Z,258
2022-10-19T06:34:00.893Z,284
2022-10-19T06:35:44.572Z,272
2022-10-19T06:37:28.295Z,275
2022-10-19T06:39:12.009Z,291
2022-10-19T06:40:55.733Z,298
2022-10-19T06:42:39.658Z,316
2022-10-19T06:44:23.104Z,318
2022-10-19T06:46:06.807Z,309
2022-10-19T06:47:50.498Z,324
2022-10-19T06:49:34.202Z,338
2022-10-19T06:51:17.940Z,350
2022-10-19T06:53:01.635Z,416
2022-10-19T06:54:45.310Z,471
2022-10-19T06:56:29.020Z,535
2022-10-19T06:58:12.865Z,572
2022-10-19T06:59:56.420Z,635
2022-10-19T07:01:40.281Z,650
2022-10-19T07:03:23.923Z,768
2022-10-19T07:05:07.630Z,776
2022-10-19T07:06:51.210Z,776
2022-10-19T07:08:34.954Z,775
2022-10-19T07:10:18.623Z,776
2022-10-19T07:12:02.290Z,775
2022-10-19T07:13:46.026Z,776
2022-10-19T07:15:29.711Z,776
2022-10-19T07:17:13.386Z,776
2022-10-19T07:18:57.093Z,776
2022-10-19T07:20:40.792Z,775
2022-10-19T07:22:24.554Z,775
2022-10-19T07:24:08.233Z,775
2022-10-19T07:25:51.918Z,776
2022-10-19T07:27:35.600Z,775
2022-10-19T07:29:19.307Z,776
2022-10-19T07:31:02.986Z,776
2022-10-19T07:32:46.760Z,776
2022-10-19T07:34:30.438Z,776
2022-10-19T07:36:14.116Z,776
2022-10-19T07:37:57.798Z,776
2022-10-19T07:39:41.504Z,776
2022-10-19T07:41:25.244Z,776
2022-10-19T07:43:08.964Z,776
2022-10-19T07:44:52.662Z,775
2022-10-19T07:46:36.323Z,776
2022-10-19T07:48:20.010Z,776
2022-10-19T07:50:03.712Z,776
2022-10-19T07:51:47.400Z,776
2022-10-19T07:53:31.096Z,776
2022-10-19T07:55:14.847Z,776
2022-10-19T07:56:58.567Z,776
2022-10-19T07:58:42.312Z,776
2022-10-19T08:00:25.894Z,776
2022-10-19T08:02:09.608Z,776
2022-10-19T08:03:53.376Z,777
2022-10-19T08:05:37.053Z,776
2022-10-19T08:07:20.738Z,776
2022-10-19T08:09:04.427Z,775
2022-10-19T08:10:48.110Z,776
2022-10-19T08:12:31.812Z,777
2022-10-19T08:14:15.572Z,776
2022-10-19T08:15:59.356Z,777
2022-10-19T08:17:42.996Z,776
2022-10-19T08:19:26.624Z,777
2022-10-19T08:21:10.326Z,776
2022-10-19T08:22:54.133Z,776
2022-10-19T08:24:37.812Z,776
2022-10-19T08:26:21.465Z,775
2022-10-19T08:28:05.157Z,777
2022-10-19T08:29:48.875Z,777
2022-10-19T08:31:32.598Z,776
2022-10-19T08:33:16.307Z,774
2022-10-19T08:35:00.002Z,776
2022-10-19T08:36:43.674Z,777
2022-10-19T08:38:27.380Z,776
2022-10-19T08:40:11.065Z,774
2022-10-19T08:41:54.759Z,776
2022-10-19T08:43:38.530Z,777
2022-10-19T08:45:22.203Z,776
2022-10-19T08:47:05.877Z,776
2022-10-19T08:48:49.637Z,776
2022-10-19T08:50:33.329Z,776
2022-10-19T08:52:17.040Z,776
2022-10-19T08:54:00.714Z,776
2022-10-19T08:55:44.397Z,776
2022-10-19T08:57:28.090Z,777
2022-10-19T08:59:11.871Z,777
2022-10-19T09:00:55.509Z,777
2022-10-19T09:02:39.249Z,777
2022-10-19T09:04:22.958Z,776
2022-10-19T09:06:06.608Z,776
2022-10-19T09:07:50.297Z,777
2022-10-19T09:09:33.992Z,776
2022-10-19T09:11:17.758Z,777
2022-10-19T09:13:01.447Z,777
2022-10-19T09:14:45.130Z,777
2022-10-19T09:16:28.814Z,777
2022-10-19T09:18:12.507Z,776
2022-10-19T09:19:56.223Z,776
2022-10-19T09:21:39.902Z,777
2022-10-19T09:23:23.652Z,776
2022-10-19T09:26:51.154Z,776
2022-10-19T09:28:34.714Z,777
2022-10-19T09:30:18.416Z,777
2022-10-19T09:32:02.107Z,777
2022-10-19T09:33:45.873Z,777
2022-10-19T09:35:29.542Z,777
2022-10-19T09:37:13.220Z,776
2022-10-19T09:38:56.917Z,777
2022-10-19T09:40:40.629Z,775
2022-10-19T09:42:24.312Z,777
2022-10-19T09:44:08.065Z,777
2022-10-19T09:45:51.743Z,776
2022-10-19T09:47:35.445Z,777
2022-10-19T09:49:19.143Z,777
2022-10-19T09:51:02.901Z,777
2022-10-19T09:52:46.583Z,778
2022-10-19T09:54:30.266Z,775
2022-10-19T09:56:14.028Z,778
2022-10-19T09:57:57.649Z,778
2022-10-19T09:59:41.424Z,777
2022-10-19T10:01:25.103Z,776
2022-10-19T10:03:08.809Z,777
2022-10-19T10:04:52.472Z,778
2022-10-19T10:06:36.173Z,778
2022-10-19T10:08:19.878Z,777
2022-10-19T10:10:03.627Z,777
2022-10-19T10:11:47.313Z,778
2022-10-19T10:13:31.003Z,777
2022-10-19T10:15:14.689Z,777
2022-10-19T10:16:58.404Z,777
2022-10-19T10:18:42.190Z,777
2022-10-19T10:20:25.837Z,777
2022-10-19T10:22:09.519Z,777
2022-10-19T10:23:53.205Z,777
2022-10-19T10:25:36.923Z,778
2022-10-19T10:27:20.682Z,777
2022-10-19T10:29:04.360Z,777
2022-10-19T10:30:48.036Z,777
2022-10-19T10:32:31.745Z,778
2022-10-19T10:34:15.445Z,777
2022-10-19T10:35:59.144Z,777
2022-10-19T10:37:42.882Z,778
2022-10-19T10:39:26.564Z,777
2022-10-19T10:41:10.258Z,778
2022-10-19T10:42:53.979Z,777
2022-10-19T10:44:37.657Z,778
2022-10-19T10:46:21.409Z,777
2022-10-19T10:48:05.187Z,778
2022-10-19T10:49:48.886Z,777
2022-10-19T10:51:32.451Z,778
2022-10-19T10:53:16.169Z,777
2022-10-19T10:54:59.859Z,778
2022-10-19T10:56:43.543Z,777
2022-10-19T10:58:27.297Z,777
2022-10-19T11:00:10.973Z,778
2022-10-19T11:01:54.750Z,778
2022-10-19T11:03:38.435Z,778
2022-10-19T11:05:22.068Z,777
2022-10-19T11:07:05.846Z,778
2022-10-19T11:08:49.500Z,777
2022-10-19T11:10:33.242Z,777
2022-10-19T11:12:16.924Z,777
2022-10-19T11:14:00.582Z,777
2022-10-19T11:15:44.279Z,778
2022-10-19T11:17:28.040Z,777
2022-10-19T11:19:11.732Z,777
2022-10-19T11:20:55.397Z,777
2022-10-19T11:22:39.100Z,777
2022-10-19T11:24:22.799Z,777
2022-10-19T11:26:06.547Z,777
2022-10-19T11:27:50.316Z,777
2022-10-19T11:29:33.964Z,776
2022-10-19T11:31:17.607Z,777
2022-10-19T11:33:01.331Z,777
2022-10-19T11:34:45.068Z,778
2022-10-19T11:36:28.756Z,777
2022-10-19T11:38:12.436Z,777
2022-10-19T11:39:56.116Z,777
2022-10-19T11:41:39.815Z,777
2022-10-19T11:43:23.592Z,777
2022-10-19T11:45:07.279Z,777
2022-10-19T11:46:50.959Z,777
2022-10-19T11:48:34.641Z,777
2022-10-19T11:50:18.340Z,777
2022-10-19T11:52:02.027Z,777
2022-10-19T11:53:45.722Z,777
2022-10-19T11:55:29.485Z,777
2022-10-19T11:57:13.170Z,777
2022-10-19T11:58:56.846Z,777
2022-10-19T12:00:40.542Z,777
2022-10-19T12:02:24.251Z,777
2022-10-19T12:04:08.007Z,776
2022-10-19T12:05:51.690Z,777
2022-10-19T12:07:35.366Z,777
2022-10-19T12:09:19.056Z,776
2022-10-19T12:11:02.847Z,777
2022-10-19T12:12:46.456Z,777
2022-10-19T12:14:30.149Z,777
2022-10-19T12:16:13.893Z,777
2022-10-19T12:17:57.571Z,778
2022-10-19T12:19:41.258Z,777
2022-10-19T12:21:24.963Z,777
2022-10-19T12:23:08.666Z,777
2022-10-19T12:24:52.418Z,777
2022-10-19T12:26:36.100Z,778
2022-10-19T12:28:19.774Z,776
2022-10-19T12:30:03.490Z,778
2022-10-19T12:31:47.189Z,777
2022-10-19T12:33:30.875Z,777
2022-10-19T12:35:14.614Z,777
2022-10-19T12:36:58.299Z,778
2022-10-19T12:38:42.005Z,775
2022-10-19T12:40:25.693Z,777
2022-10-19T12:42:09.403Z,777
2022-10-19T12:43:53.156Z,777
2022-10-19T12:45:36.825Z,776
2022-10-19T12:47:20.526Z,777
2022-10-19T12:49:04.212Z,777
2022-10-19T12:50:47.992Z,778
2022-10-19T12:52:31.669Z,777
2022-10-19T12:54:15.349Z,777
2022-10-19T12:55:59.040Z,777
2022-10-19T12:57:42.822Z,777
2022-10-19T12:59:26.539Z,777
2022-10-19T13:01:10.191Z,777
2022-10-19T13:02:54.026Z,777
2022-10-19T13:04:37.625Z,778
2022-10-19T13:06:21.306Z,778
2022-10-19T13:08:05.027Z,777
2022-10-19T13:09:48.872Z,778
2022-10-19T13:11:32.513Z,777
2022-10-19T13:13:16.225Z,777
2022-10-19T13:14:59.859Z,777
2022-10-19T13:16:43.592Z,777
2022-10-19T13:18:27.172Z,777
2022-10-19T13:20:11.018Z,777
2022-10-19T13:21:54.645Z,777
2022-10-19T13:23:38.332Z,778
2022-10-19T13:25:21.969Z,776
2022-10-19T13:27:05.686Z,778
2022-10-19T13:28:49.449Z,778
2022-10-19T13:30:33.139Z,778
2022-10-19T13:32:16.815Z,778
2022-10-19T13:34:00.481Z,778
2022-10-19T13:35:44.201Z,778
2022-10-19T13:37:27.899Z,778
2022-10-19T13:39:11.652Z,778
2022-10-19T13:40:55.328Z,777
2022-10-19T13:42:39.023Z,778
2022-10-19T13:44:22.706Z,778
2022-10-19T13:46:06.385Z,778
2022-10-19T13:47:50.100Z,778
2022-10-19T13:49:33.851Z,777
2022-10-19T13:51:17.536Z,778
2022-10-19T13:53:01.226Z,778
2022-10-19T13:54:44.912Z,778
2022-10-19T13:56:28.608Z,777
2022-10-19T13:58:12.300Z,776
2022-10-19T13:59:55.995Z,778
2022-10-19T14:01:39.736Z,778
2022-10-19T14:03:23.425Z,777
2022-10-19T14:05:07.133Z,778
2022-10-19T14:06:50.834Z,778
2022-10-19T14:08:34.583Z,777
2022-10-19T14:10:18.274Z,778
2022-10-19T14:12:01.951Z,777
2022-10-19T14:13:45.654Z,778
2022-10-19T14:15:29.336Z,778
2022-10-19T14:17:13.115Z,778
2022-10-19T14:18:56.812Z,778
2022-10-19T14:20:40.475Z,778
2022-10-19T14:22:24.157Z,778
2022-10-19T14:24:07.876Z,778
2022-10-19T14:25:51.574Z,777
2022-10-19T14:27:35.343Z,778
2022-10-19T14:29:19.000Z,778
2022-10-19T14:31:02.688Z,778
2022-10-19T14:32:46.383Z,777
2022-10-19T14:34:30.095Z,778
2022-10-19T14:36:13.842Z,778
2022-10-19T14:37:57.527Z,778
2022-10-19T14:39:41.209Z,777
2022-10-19T14:41:24.910Z,750
2022-10-19T14:43:08.608Z,773
2022-10-19T14:44:52.358Z,700
2022-10-19T14:46:36.042Z,626
2022-10-19T14:48:19.753Z,585
2022-10-19T14:50:03.407Z,627
2022-10-19T14:51:47.113Z,547
2022-10-19T14:53:30.814Z,553
2022-10-19T14:55:14.566Z,554
2022-10-19T14:56:58.249Z,560
2022-10-19T14:58:41.932Z,582
2022-10-19T15:00:25.609Z,565
2022-10-19T15:02:09.310Z,521
2022-10-19T15:03:53.026Z,502
2022-10-19T15:05:36.768Z,514
2022-10-19T15:07:20.461Z,522
2022-10-19T15:09:04.131Z,534
2022-10-19T15:10:47.855Z,522
2022-10-19T15:12:31.589Z,540
2022-10-19T15:14:15.249Z,520
2022-10-19T15:15:58.983Z,524
2022-10-19T15:17:42.659Z,515
2022-10-19T15:19:26.334Z,474
2022-10-19T15:21:10.026Z,472
2022-10-19T15:22:53.733Z,485
2022-10-19T15:24:37.431Z,496
2022-10-19T15:26:21.183Z,463
2022-10-19T15:28:04.863Z,441
2022-10-19T15:29:48.553Z,436
2022-10-19T15:31:32.243Z,426
2022-10-19T15:33:15.967Z,429
2022-10-19T15:34:59.671Z,434
2022-10-19T15:36:43.381Z,427
2022-10-19T15:38:27.074Z,439
2022-10-19T15:40:10.808Z,433
2022-10-19T15:41:54.449Z,419
2022-10-19T15:43:38.169Z,422
2022-10-19T15:45:21.906Z,447
2022-10-19T15:47:05.601Z,444
2022-10-19T15:48:49.274Z,376
2022-10-19T15:50:32.965Z,321
2022-10-19T15:52:16.734Z,282
2022-10-19T15:54:00.438Z,258
2022-10-19T15:55:44.122Z,235
2022-10-19T15:57:27.797Z,223
2022-10-19T15:59:11.477Z,209
2022-10-19T16:00:55.186Z,199
2022-10-19T16:02:38.884Z,188
2022-10-19T16:04:22.645Z,176
2022-10-19T16:06:06.319Z,164
2022-10-19T16:07:50.012Z,153
2022-10-19T16:09:33.732Z,138
2022-10-19T16:11:17.408Z,119
2022-10-19T16:13:01.166Z,104
2022-10-19T16:14:44.844Z,90
2022-10-19T16:16:28.549Z,79
2022-10-19T16:18:12.227Z,68
2022-10-19T16:19:55.943Z,57
2022-10-19T16:21:39.623Z,774
2022-10-19T16:23:23.364Z,776
2022-10-19T16:25:07.060Z,777
2022-10-19T16:26:50.737Z,776
2022-10-19T16:28:34.444Z,544
2022-10-19T16:30:18.138Z,605
2022-10-19T16:32:01.886Z,776
2022-10-19T16:33:45.575Z,676
2022-10-19T16:35:29.251Z,776
2022-10-19T16:37:12.951Z,725
2022-10-19T16:38:56.664Z,777
2022-10-19T16:40:40.426Z,776
2022-10-19T16:42:24.136Z,776
2022-10-19T16:44:07.778Z,776
2022-10-19T16:45:51.472Z,583
2022-10-19T16:47:35.170Z,777
2022-10-19T16:49:18.869Z,777
2022-10-19T16:51:02.624Z,777
2022-10-19T16:52:46.299Z,777
2022-10-19T16:54:29.994Z,777
2022-10-19T16:56:13.678Z,777
2022-10-19T16:57:57.390Z,687
2022-10-19T16:59:41.154Z,777
2022-10-19T17:01:24.833Z,776
2022-10-19T17:04:52.184Z,777
2022-10-19T17:06:35.905Z,776
2022-10-19T17:08:19.602Z,775
2022-10-19T17:10:03.356Z,776
2022-10-19T17:11:47.031Z,777
2022-10-19T17:13:30.724Z,776
2022-10-19T17:15:14.443Z,777
2022-10-19T17:16:58.119Z,777
2022-10-19T17:18:41.904Z,776
2022-10-19T17:20:25.552Z,777
2022-10-19T17:22:09.240Z,777
2022-10-19T17:23:52.928Z,776
2022-10-19T17:25:36.675Z,776
2022-10-19T17:27:20.397Z,777
2022-10-19T17:29:04.081Z,776
2022-10-19T17:30:47.761Z,776
2022-10-19T17:32:31.446Z,777
2022-10-19T17:35:58.841Z,777
2022-10-19T17:37:42.539Z,776
2022-10-19T17:39:26.289Z,776
2022-10-19T17:41:09.973Z,776
2022-10-19T17:42:53.659Z,776
2022-10-19T17:44:37.396Z,776
2022-10-19T17:46:21.062Z,776
2022-10-19T17:48:04.825Z,775
2022-10-19T17:49:48.489Z,776
2022-10-19T17:51:32.167Z,776
2022-10-19T17:53:15.864Z,777
2022-10-19T17:54:59.562Z,774
2022-10-19T17:56:43.271Z,777
2022-10-19T17:58:27.014Z,776
2022-10-19T18:00:10.692Z,776
2022-10-19T18:01:54.417Z,773
2022-10-19T18:03:38.079Z,776
2022-10-19T18:05:21.784Z,776
2022-10-19T18:07:05.541Z,776
2022-10-19T18:08:49.214Z,776
2022-10-19T18:10:32.897Z,777
2022-10-19T18:12:16.605Z,776
2022-10-19T18:14:00.330Z,777
2022-10-19T18:15:44.007Z,776
2022-10-19T18:17:27.740Z,776
2022-10-19T18:19:11.422Z,776
2022-10-19T18:20:55.109Z,777
2022-10-19T18:22:38.816Z,776
2022-10-19T18:24:22.524Z,777
2022-10-19T18:26:06.271Z,777
2022-10-19T18:27:49.966Z,776
2022-10-19T18:29:33.634Z,776
2022-10-19T18:31:17.363Z,776
2022-10-19T18:33:01.026Z,777
2022-10-19T18:34:44.796Z,776
2022-10-19T18:36:28.474Z,776
2022-10-19T18:38:12.149Z,776
2022-10-19T18:39:55.850Z,776
2022-10-19T18:41:39.556Z,777
2022-10-19T18:43:23.328Z,777
2022-10-19T18:45:06.998Z,776
2022-10-19T18:46:50.677Z,776
2022-10-19T18:48:34.366Z,777
2022-10-19T18:50:18.066Z,776
2022-10-19T18:52:01.824Z,775
2022-10-19T18:53:45.525Z,776
2022-10-19T18:55:29.215Z,776
2022-10-19T18:57:12.945Z,775
2022-10-19T18:58:56.605Z,776
2022-10-19T19:00:40.284Z,777
2022-10-19T19:02:23.990Z,21
2022-10-19T19:04:07.732Z,17
2022-10-19T19:05:51.411Z,18
2022-10-19T19:07:35.098Z,18
2022-10-19T19:09:18.800Z,18
2022-10-19T19:11:02.503Z,17
2022-10-19T19:12:46.252Z,16
2022-10-19T19:14:29.936Z,16
2022-10-19T19:16:13.651Z,16
2022-10-19T19:17:57.324Z,16
2022-10-19T19:19:41.023Z,16
2022-10-19T19:21:24.786Z,17
2022-10-19T19:23:08.477Z,17
2022-10-19T19:24:52.139Z,17
2022-10-19T19:26:35.835Z,16
2022-10-19T19:28:19.563Z,15
2022-10-19T19:30:03.282Z,14
2022-10-19T19:31:46.978Z,18
2022-10-19T19:33:30.675Z,18
2022-10-19T19:35:14.360Z,17
2022-10-19T19:36:58.057Z,17
2022-10-19T19:38:41.749Z,14
2022-10-19T19:40:25.516Z,4
2022-10-19T19:42:09.184Z,2
2022-10-19T19:43:52.869Z,4
2022-10-19T19:45:36.570Z,3
2022-10-19T19:47:20.287Z,3
2022-10-19T19:49:04.034Z,4
2022-10-19T19:50:47.702Z,3
2022-10-19T19:52:31.407Z,4
2022-10-19T19:54:15.109Z,3
2022-10-19T19:55:58.792Z,3
2022-10-19T19:57:42.576Z,3
2022-10-19T19:59:26.231Z,3
2022-10-19T20:01:09.920Z,3
2022-10-19T20:02:53.598Z,4
2022-10-19T20:04:37.313Z,3
2022-10-19T20:06:21.001Z,5
2022-10-19T20:08:04.752Z,3
2022-10-19T20:09:48.438Z,3
2022-10-19T20:11:32.115Z,4
2022-10-19T20:13:15.813Z,3
2022-10-19T20:14:59.524Z,4
2022-10-19T20:16:43.302Z,4
2022-10-19T20:18:26.968Z,4
2022-10-19T20:20:10.654Z,4
2022-10-19T20:21:54.320Z,4
2022-10-19T20:23:38.022Z,3
2022-10-19T20:25:21.716Z,4
2022-10-19T20:27:05.398Z,81
2022-10-19T20:28:49.168Z,3
2022-10-19T20:30:32.846Z,3
2022-10-19T20:32:16.536Z,3
2022-10-19T20:34:00.206Z,4
2022-10-19T20:35:43.918Z,3
2022-10-19T20:37:27.627Z,3
2022-10-19T20:39:11.395Z,3
2022-10-19T20:40:55.067Z,3
2022-10-19T20:42:38.742Z,3
2022-10-19T20:44:22.456Z,4
2022-10-19T20:46:06.142Z,4
2022-10-19T20:47:49.831Z,3
2022-10-19T20:49:33.577Z,3
2022-10-19T20:51:17.253Z,3
2022-10-19T20:53:00.934Z,4
2022-10-19T20:54:44.636Z,4
2022-10-19T20:56:28.380Z,4
2022-10-19T20:58:12.103Z,3
2022-10-19T20:59:55.782Z,3
2022-10-19T21:01:39.457Z,4
2022-10-19T21:03:23.144Z,3
2022-10-19T21:05:06.855Z,4
2022-10-19T21:06:50.546Z,4
2022-10-19T21:08:34.245Z,4
2022-10-19T21:10:17.986Z,4
2022-10-19T21:12:01.666Z,3
2022-10-19T21:13:45.382Z,4
2022-10-19T21:15:29.065Z,3
2022-10-19T21:17:12.766Z,4
2022-10-19T21:18:56.510Z,3
2022-10-19T21:20:40.187Z,3
2022-10-19T21:22:23.885Z,4
2022-10-19T21:24:07.582Z,3
2022-10-19T21:25:51.289Z,3
2022-10-19T21:27:35.037Z,4
2022-10-19T21:29:18.741Z,3
2022-10-19T21:31:02.393Z,4
2022-10-19T21:32:46.097Z,4
2022-10-19T21:34:29.813Z,4
2022-10-19T21:36:13.505Z,4
2022-10-19T21:37:57.246Z,3
2022-10-19T21:39:40.915Z,4
2022-10-19T21:41:24.606Z,3
2022-10-19T21:43:08.301Z,3
2022-10-19T21:44:52.082Z,4
2022-10-19T21:46:35.803Z,3
2022-10-19T21:48:19.444Z,44
2022-10-19T21:50:03.132Z,78
2022-10-19T21:51:46.819Z,78
2022-10-19T21:53:30.517Z,79
2022-10-19T21:55:14.206Z,79
2022-10-19T21:56:57.974Z,80
2022-10-19T21:58:41.648Z,79
2022-10-19T22:00:25.348Z,3
2022-10-19T22:02:09.008Z,2
2022-10-19T22:03:52.713Z,78
2022-10-19T22:05:36.412Z,3
2022-10-19T22:07:20.169Z,2
2022-10-19T22:09:03.851Z,3
2022-10-19T22:10:47.529Z,3
2022-10-19T22:12:31.237Z,2
2022-10-19T22:14:14.931Z,2
2022-10-19T22:15:58.620Z,2
2022-10-19T22:17:42.310Z,2
2022-10-19T22:19:26.086Z,3
2022-10-19T22:21:09.739Z,3
2022-10-19T22:22:53.422Z,2
2022-10-19T22:24:37.119Z,2
2022-10-19T22:26:20.844Z,2
2022-10-19T22:28:04.586Z,2
2022-10-19T22:29:48.260Z,1
2022-10-19T22:31:31.951Z,2
2022-10-19T22:33:15.643Z,2
2022-10-19T22:34:59.350Z,1
2022-10-19T22:36:43.026Z,2
2022-10-19T22:38:26.786Z,2
2022-10-19T22:40:10.475Z,2
2022-10-19T22:41:54.148Z,2
2022-10-19T22:43:37.844Z,1
2022-10-19T22:45:21.551Z,2
2022-10-19T22:47:05.235Z,2
2022-10-19T22:48:48.992Z,2
2022-10-19T22:50:32.670Z,2
2022-10-19T22:52:16.351Z,2
2022-10-19T22:54:00.082Z,2
2022-10-19T22:55:43.771Z,2
2022-10-19T22:57:27.436Z,2
2022-10-19T22:59:11.195Z,2
2022-10-19T23:00:54.879Z,2
2022-10-19T23:02:38.552Z,2
2022-10-19T23:04:22.502Z,2
2022-10-19T23:06:05.939Z,1
2022-10-19T23:07:49.655Z,2
2022-10-19T23:09:33.401Z,2
2022-10-19T23:11:17.078Z,3
2022-10-19T23:13:00.763Z,2
2022-10-19T23:14:44.449Z,2
2022-10-19T23:16:28.158Z,2
2022-10-19T23:18:11.851Z,2
2022-10-19T23:19:55.608Z,1
2022-10-19T23:21:39.282Z,2
2022-10-19T23:23:22.978Z,2
2022-10-19T23:25:06.674Z,2
2022-10-19T23:26:50.364Z,2
2022-10-19T23:28:34.128Z,2
2022-10-19T23:30:17.812Z,2
2022-10-19T23:32:01.493Z,2
2022-10-19T23:33:45.188Z,1
2022-10-19T23:35:28.889Z,2
2022-10-19T23:37:12.666Z,2
2022-10-19T23:38:56.331Z,1
2022-10-19T23:40:40.037Z,1
2022-10-19T23:42:23.692Z,1
2022-10-19T23:44:07.412Z,2
2022-10-19T23:45:51.101Z,1
2022-10-19T23:47:34.856Z,1
2022-10-19T23:49:18.545Z,2
2022-10-19T23:51:02.220Z,2
2022-10-19T23:52:45.897Z,1
2022-10-19T23:54:29.592Z,1
2022-10-19T23:56:13.312Z,2
2022-10-19T23:57:56.988Z,2
2022-10-19T23:59:40.754Z,2
